createdAt,value
2022-11-12T00:01:04.570Z,59.30
2022-11-12T00:03:33.587Z,59.54
2022-11-12T00:06:01.292Z,59.20
2022-11-12T00:08:29.464Z,59.53
2022-11-12T00:10:57.448Z,59.35
2022-11-12T00:13:25.093Z,59.27
2022-11-12T00:15:52.775Z,59.44
2022-11-12T00:18:20.499Z,59.57
2022-11-12T00:20:49.725Z,59.58
2022-11-12T00:23:17.375Z,59.58
2022-11-12T00:25:45.089Z,59.39
2022-11-12T00:28:12.879Z,59.46
2022-11-12T00:30:41.461Z,59.46
2022-11-12T00:33:09.187Z,59.49
2022-11-12T00:35:37.994Z,59.51
2022-11-12T00:38:06.984Z,59.55
2022-11-12T00:40:34.660Z,59.46
2022-11-12T00:43:02.305Z,59.40
2022-11-12T00:45:29.984Z,59.34
2022-11-12T00:47:58.112Z,59.41
2022-11-12T00:50:25.927Z,59.30
2022-11-12T00:52:53.908Z,59.40
2022-11-12T00:55:22.986Z,59.13
2022-11-12T00:57:50.692Z,59.22
2022-11-12T01:00:20.015Z,59.53
2022-11-12T01:02:51.375Z,59.32
2022-11-12T01:05:20.289Z,59.32
2022-11-12T01:07:54.699Z,59.19
2022-11-12T01:10:24.948Z,59.15
2022-11-12T01:12:52.681Z,59.52
2022-11-12T01:15:20.276Z,59.17
2022-11-12T01:17:47.953Z,59.07
2022-11-12T01:20:15.658Z,59.21
2022-11-12T01:22:43.342Z,58.95
2022-11-12T01:25:11.127Z,59.10
2022-11-12T01:27:40.123Z,59.04
2022-11-12T01:30:08.865Z,59.08
2022-11-12T01:32:37.868Z,58.98
2022-11-12T01:35:06.677Z,59.06
2022-11-12T01:37:34.369Z,58.84
2022-11-12T01:40:02.037Z,59.01
2022-11-12T01:42:32.547Z,58.67
2022-11-12T01:45:01.588Z,58.75
2022-11-12T01:47:31.303Z,58.98
2022-11-12T01:50:06.577Z,58.73
2022-11-12T01:52:37.730Z,58.81
2022-11-12T01:55:10.882Z,59.17
2022-11-12T01:57:42.952Z,58.93
2022-11-12T02:00:14.484Z,58.93
2022-11-12T02:02:46.272Z,58.88
2022-11-12T02:05:15.944Z,58.79
2022-11-12T02:07:46.921Z,58.80
2022-11-12T02:10:15.258Z,58.86
2022-11-12T02:13:01.421Z,58.81
2022-11-12T02:15:30.702Z,58.73
2022-11-12T02:17:58.525Z,58.88
2022-11-12T02:20:26.459Z,59.05
2022-11-12T02:22:55.481Z,58.82
2022-11-12T02:25:25.585Z,58.70
2022-11-12T02:27:55.362Z,58.79
2022-11-12T02:30:33.560Z,58.86
2022-11-12T02:33:01.657Z,58.69
2022-11-12T02:35:29.297Z,58.62
2022-11-12T02:37:58.781Z,58.55
2022-11-12T02:40:26.543Z,58.54
2022-11-12T02:42:54.234Z,58.56
2022-11-12T02:45:22.173Z,58.68
2022-11-12T02:47:49.846Z,58.52
2022-11-12T02:50:18.312Z,58.61
2022-11-12T02:52:46.004Z,58.54
2022-11-12T02:55:14.993Z,58.46
2022-11-12T02:57:42.801Z,58.63
2022-11-12T03:00:13.053Z,58.59
2022-11-12T03:02:42.718Z,58.64
2022-11-12T03:05:11.120Z,58.77
2022-11-12T03:07:38.977Z,58.61
2022-11-12T03:10:07.778Z,58.72
2022-11-12T03:12:36.800Z,58.75
2022-11-12T03:15:04.757Z,58.62
2022-11-12T03:17:32.515Z,58.79
2022-11-12T03:20:00.240Z,58.85
2022-11-12T03:22:27.873Z,58.83
2022-11-12T03:24:55.555Z,58.91
2022-11-12T03:27:23.180Z,58.93
2022-11-12T03:29:52.205Z,58.91
2022-11-12T03:32:19.854Z,59.02
2022-11-12T03:34:49.617Z,58.96
2022-11-12T03:37:19.533Z,59.07
2022-11-12T03:39:47.172Z,58.84
2022-11-12T03:42:14.897Z,58.97
2022-11-12T03:44:42.522Z,59.24
2022-11-12T03:47:11.626Z,59.38
2022-11-12T03:49:39.341Z,59.42
2022-11-12T03:52:06.971Z,59.34
2022-11-12T03:54:34.624Z,59.23
2022-11-12T03:57:02.297Z,59.37
2022-11-12T03:59:29.963Z,59.18
2022-11-12T04:01:57.615Z,59.18
2022-11-12T04:04:47.057Z,59.15
2022-11-12T04:07:32.413Z,59.18
2022-11-12T04:10:00.162Z,59.23
2022-11-12T04:12:45.429Z,59.30
2022-11-12T04:15:13.112Z,59.01
2022-11-12T04:17:58.560Z,59.22
2022-11-12T04:20:45.169Z,59.17
2022-11-12T04:23:12.833Z,59.08
2022-11-12T04:25:58.305Z,59.01
2022-11-12T04:28:26.306Z,58.81
2022-11-12T04:30:53.177Z,59.22
2022-11-12T04:33:20.877Z,58.89
2022-11-12T04:35:49.918Z,59.10
2022-11-12T04:38:17.577Z,59.26
2022-11-12T04:41:02.894Z,58.98
2022-11-12T04:43:48.510Z,59.14
2022-11-12T04:46:16.203Z,59.16
2022-11-12T04:48:43.856Z,58.72
2022-11-12T04:51:26.981Z,58.88
2022-11-12T04:53:54.859Z,58.47
2022-11-12T04:56:22.579Z,58.76
2022-11-12T04:58:50.247Z,58.79
2022-11-12T05:01:17.965Z,58.71
2022-11-12T05:03:45.669Z,58.82
2022-11-12T05:06:28.577Z,58.58
2022-11-12T05:08:56.549Z,58.88
2022-11-12T05:11:24.206Z,58.59
2022-11-12T05:13:51.897Z,58.88
2022-11-12T05:16:19.529Z,58.60
2022-11-12T05:18:47.161Z,58.71
2022-11-12T05:21:34.594Z,58.86
2022-11-12T05:24:04.977Z,58.90
2022-11-12T05:26:32.635Z,58.60
2022-11-12T05:29:02.164Z,58.74
2022-11-12T05:31:32.857Z,58.59
2022-11-12T05:34:00.762Z,58.72
2022-11-12T05:36:29.765Z,58.29
2022-11-12T05:38:57.541Z,58.77
2022-11-12T05:41:25.212Z,58.85
2022-11-12T05:43:52.936Z,58.54
2022-11-12T05:46:20.833Z,58.63
2022-11-12T05:48:48.588Z,58.34
2022-11-12T05:51:16.613Z,58.45
2022-11-12T05:53:45.697Z,58.59
2022-11-12T05:56:13.375Z,58.49
2022-11-12T05:58:41.034Z,58.41
2022-11-12T06:01:08.775Z,58.45
2022-11-12T06:03:36.451Z,58.58
2022-11-12T06:06:04.138Z,58.25
2022-11-12T06:08:31.798Z,58.22
2022-11-12T06:11:00.805Z,58.54
2022-11-12T06:13:28.703Z,58.60
2022-11-12T06:15:57.060Z,58.44
2022-11-12T06:18:25.966Z,57.97
2022-11-12T06:21:11.709Z,58.38
2022-11-12T06:23:39.453Z,58.55
2022-11-12T06:26:08.582Z,58.49
2022-11-12T06:28:36.306Z,58.40
2022-11-12T06:31:04.459Z,58.27
2022-11-12T06:33:32.221Z,58.23
2022-11-12T06:36:03.057Z,58.54
2022-11-12T06:38:31.401Z,58.49
2022-11-12T06:40:59.104Z,57.95
2022-11-12T06:43:30.464Z,58.03
2022-11-12T06:46:00.865Z,58.51
2022-11-12T06:48:29.854Z,58.47
2022-11-12T06:50:58.082Z,58.42
2022-11-12T06:53:26.225Z,58.08
2022-11-12T06:55:53.898Z,58.15
2022-11-12T06:58:21.518Z,58.22
2022-11-12T07:00:50.557Z,58.23
2022-11-12T07:03:18.266Z,58.06
2022-11-12T07:05:45.899Z,58.64
2022-11-12T07:08:13.602Z,58.44
2022-11-12T07:10:41.232Z,58.40
2022-11-12T07:13:08.904Z,57.95
2022-11-12T07:15:36.540Z,58.14
2022-11-12T07:18:05.717Z,58.47
2022-11-12T07:20:33.409Z,58.55
2022-11-12T07:23:01.686Z,58.52
2022-11-12T07:25:29.333Z,58.12
2022-11-12T07:27:56.990Z,58.53
2022-11-12T07:30:24.653Z,58.42
2022-11-12T07:32:52.346Z,58.32
2022-11-12T07:35:21.365Z,58.46
2022-11-12T07:37:49.029Z,58.77
2022-11-12T07:40:16.993Z,58.68
2022-11-12T07:42:44.627Z,58.22
2022-11-12T07:45:12.359Z,58.58
2022-11-12T07:47:40.024Z,58.54
2022-11-12T07:50:08.290Z,58.64
2022-11-12T07:52:37.289Z,58.65
2022-11-12T07:55:07.008Z,58.15
2022-11-12T07:57:34.911Z,58.12
2022-11-12T08:00:02.700Z,57.77
2022-11-12T08:02:30.557Z,57.20
2022-11-12T08:04:58.246Z,57.20
2022-11-12T08:07:26.080Z,56.73
2022-11-12T08:09:55.387Z,56.44
2022-11-12T08:12:23.157Z,55.81
2022-11-12T08:14:50.871Z,55.76
2022-11-12T08:17:18.499Z,56.30
2022-11-12T08:19:46.227Z,57.07
2022-11-12T08:22:13.994Z,57.34
2022-11-12T08:24:41.690Z,57.54
2022-11-12T08:27:10.696Z,57.75
2022-11-12T08:29:38.371Z,58.14
2022-11-12T08:32:06.541Z,58.66
2022-11-12T08:34:35.909Z,58.67
2022-11-12T08:37:03.764Z,58.87
2022-11-12T08:39:31.448Z,58.82
2022-11-12T08:41:59.167Z,58.72
2022-11-12T08:44:28.276Z,59.03
2022-11-12T08:46:55.949Z,58.95
2022-11-12T08:49:23.591Z,59.03
2022-11-12T08:51:51.328Z,59.07
2022-11-12T08:54:19.176Z,59.65
2022-11-12T08:56:46.918Z,59.57
2022-11-12T08:59:14.556Z,59.90
2022-11-12T09:01:43.891Z,59.48
2022-11-12T09:04:11.778Z,59.72
2022-11-12T09:06:39.496Z,60.07
2022-11-12T09:09:07.310Z,60.26
2022-11-12T09:11:34.958Z,60.28
2022-11-12T09:14:02.657Z,60.03
2022-11-12T09:16:30.408Z,60.37
2022-11-12T09:18:59.412Z,60.85
2022-11-12T09:21:27.165Z,59.97
2022-11-12T09:23:55.551Z,60.45
2022-11-12T09:26:23.487Z,60.35
2022-11-12T09:28:52.346Z,60.32
2022-11-12T09:31:20.045Z,60.61
2022-11-12T09:33:47.760Z,61.05
2022-11-12T09:36:17.637Z,60.83
2022-11-12T09:38:45.269Z,60.94
2022-11-12T09:41:21.674Z,61.24
2022-11-12T09:43:52.230Z,61.07
2022-11-12T09:46:29.540Z,62.37
2022-11-12T09:49:03.778Z,61.76
2022-11-12T09:51:35.396Z,61.45
2022-11-12T09:54:05.704Z,61.38
2022-11-12T09:56:33.407Z,61.89
2022-11-12T09:59:01.207Z,61.44
2022-11-12T10:01:44.141Z,61.50
2022-11-12T10:04:37.577Z,62.31
2022-11-12T10:07:13.861Z,62.06
2022-11-12T10:09:52.517Z,62.20
2022-11-12T10:12:33.511Z,61.98
2022-11-12T10:15:35.978Z,62.38
2022-11-12T10:18:09.261Z,62.36
2022-11-12T10:20:42.731Z,61.93
2022-11-12T10:23:19.474Z,61.95
2022-11-12T10:25:49.910Z,62.53
2022-11-12T10:28:28.249Z,62.50
2022-11-12T10:31:02.457Z,62.53
2022-11-12T10:33:32.753Z,62.67
2022-11-12T10:36:16.235Z,62.36
2022-11-12T10:38:49.041Z,62.67
2022-11-12T10:41:23.189Z,62.78
2022-11-12T10:43:59.385Z,62.70
2022-11-12T10:46:29.835Z,62.93
2022-11-12T10:49:01.059Z,62.83
2022-11-12T10:51:32.222Z,62.87
2022-11-12T10:54:29.603Z,63.04
2022-11-12T10:56:57.335Z,62.91
2022-11-12T10:59:25.702Z,63.09
2022-11-12T11:01:58.511Z,63.19
2022-11-12T11:04:31.121Z,63.04
2022-11-12T11:07:01.721Z,62.81
2022-11-12T11:09:31.489Z,63.20
2022-11-12T11:11:59.337Z,63.21
2022-11-12T11:14:33.455Z,63.07
2022-11-12T11:17:04.645Z,63.04
2022-11-12T11:19:38.811Z,63.14
2022-11-12T11:22:39.185Z,63.11
2022-11-12T11:25:21.643Z,63.25
2022-11-12T11:28:02.605Z,63.23
2022-11-12T11:30:30.351Z,63.16
2022-11-12T11:33:22.356Z,63.28
2022-11-12T11:36:03.792Z,63.32
2022-11-12T11:38:41.206Z,63.29
2022-11-12T11:41:30.195Z,63.45
2022-11-12T11:44:13.756Z,63.38
2022-11-12T11:46:52.343Z,63.43
2022-11-12T11:49:36.244Z,63.42
2022-11-12T11:52:15.800Z,63.49
2022-11-12T11:55:00.049Z,63.39
2022-11-12T11:57:34.539Z,63.38
2022-11-12T12:00:12.553Z,63.41
2022-11-12T12:03:05.629Z,63.40
2022-11-12T12:05:42.954Z,63.56
2022-11-12T12:08:14.031Z,63.48
2022-11-12T12:11:07.718Z,63.51
2022-11-12T12:13:52.613Z,63.45
2022-11-12T12:16:46.086Z,63.65
2022-11-12T12:19:27.624Z,63.62
2022-11-12T12:21:57.997Z,63.49
2022-11-12T12:24:30.870Z,63.75
2022-11-12T12:27:03.671Z,63.65
2022-11-12T12:29:38.322Z,63.69
2022-11-12T12:32:15.029Z,63.69
2022-11-12T12:34:44.422Z,63.80
2022-11-12T12:37:18.242Z,63.64
2022-11-12T12:39:53.330Z,63.99
2022-11-12T12:42:24.037Z,64.09
2022-11-12T12:45:04.745Z,64.35
2022-11-12T12:47:37.721Z,64.36
2022-11-12T12:50:08.179Z,64.49
2022-11-12T12:53:03.069Z,64.23
2022-11-12T12:55:42.578Z,64.26
2022-11-12T12:58:26.939Z,64.29
2022-11-12T13:01:00.621Z,64.59
2022-11-12T13:03:55.972Z,64.65
2022-11-12T13:06:29.259Z,64.83
2022-11-12T13:09:01.521Z,64.94
2022-11-12T13:12:06.127Z,64.95
2022-11-12T13:14:52.520Z,64.71
2022-11-12T13:17:48.399Z,65.12
2022-11-12T13:20:40.782Z,64.96
2022-11-12T13:23:33.191Z,65.21
2022-11-12T13:26:45.484Z,65.01
2022-11-12T13:29:24.474Z,65.23
2022-11-12T13:32:27.731Z,65.43
2022-11-12T13:35:16.140Z,65.38
2022-11-12T13:37:45.665Z,65.37
2022-11-12T13:40:16.968Z,65.58
2022-11-12T13:42:52.198Z,65.58
2022-11-12T13:45:22.546Z,65.77
2022-11-12T13:47:50.453Z,65.74
2022-11-12T13:50:21.864Z,65.58
2022-11-12T13:52:50.704Z,65.85
2022-11-12T13:55:20.577Z,65.59
2022-11-12T13:57:51.932Z,65.96
2022-11-12T14:00:28.085Z,65.98
2022-11-12T14:02:58.763Z,66.09
2022-11-12T14:05:28.083Z,65.88
2022-11-12T14:08:17.808Z,65.89
2022-11-12T14:10:55.627Z,65.90
2022-11-12T14:13:43.915Z,66.14
2022-11-12T14:16:28.138Z,66.21
2022-11-12T14:19:15.156Z,65.80
2022-11-12T14:21:42.883Z,65.92
2022-11-12T14:24:13.375Z,65.86
2022-11-12T14:26:44.463Z,66.11
2022-11-12T14:29:19.354Z,66.12
2022-11-12T14:31:47.540Z,66.45
2022-11-12T14:34:22.792Z,66.39
2022-11-12T14:36:50.731Z,66.71
2022-11-12T14:39:18.461Z,66.67
2022-11-12T14:41:49.118Z,66.59
2022-11-12T14:44:22.243Z,67.09
2022-11-12T14:46:53.749Z,66.64
2022-11-12T14:49:29.039Z,66.85
2022-11-12T14:52:04.532Z,66.80
2022-11-12T14:54:36.134Z,66.89
2022-11-12T14:57:05.697Z,66.75
2022-11-12T14:59:35.064Z,66.83
2022-11-12T15:05:00.205Z,66.88
2022-11-12T15:07:30.486Z,67.05
2022-11-12T15:09:58.214Z,66.82
2022-11-12T15:12:28.237Z,67.26
2022-11-12T15:15:08.352Z,67.37
2022-11-12T15:17:38.102Z,67.38
2022-11-12T15:20:15.309Z,67.26
2022-11-12T15:22:50.735Z,66.96
2022-11-12T15:25:22.926Z,67.18
2022-11-12T15:27:51.180Z,67.11
2022-11-12T15:30:24.446Z,67.20
2022-11-12T15:33:08.475Z,67.19
2022-11-12T15:35:38.039Z,67.18
2022-11-12T15:38:08.982Z,67.25
2022-11-12T15:40:44.026Z,67.11
2022-11-12T15:43:15.486Z,67.32
2022-11-12T15:45:44.664Z,67.00
2022-11-12T15:48:13.520Z,67.14
2022-11-12T15:50:41.186Z,67.37
2022-11-12T15:53:08.881Z,67.51
2022-11-12T15:55:38.558Z,67.26
2022-11-12T15:58:07.770Z,67.38
2022-11-12T16:00:37.473Z,66.94
2022-11-12T16:03:14.768Z,66.77
2022-11-12T16:05:42.709Z,67.14
2022-11-12T16:08:10.714Z,66.92
2022-11-12T16:10:39.317Z,67.28
2022-11-12T16:13:08.359Z,67.16
2022-11-12T16:15:36.089Z,67.00
2022-11-12T16:18:03.809Z,67.18
2022-11-12T16:20:34.672Z,66.85
2022-11-12T16:23:02.741Z,67.33
2022-11-12T16:25:32.905Z,66.98
2022-11-12T16:28:01.864Z,67.05
2022-11-12T16:30:32.449Z,66.96
2022-11-12T16:33:01.983Z,67.06
2022-11-12T16:35:30.782Z,67.43
2022-11-12T16:37:59.822Z,67.07
2022-11-12T16:40:29.814Z,67.20
2022-11-12T16:42:57.862Z,67.28
2022-11-12T16:45:33.018Z,67.08
2022-11-12T16:48:00.820Z,67.08
2022-11-12T16:50:29.761Z,67.18
2022-11-12T16:52:58.843Z,67.25
2022-11-12T16:55:26.531Z,67.36
2022-11-12T16:57:54.188Z,66.87
2022-11-12T17:00:22.145Z,67.05
2022-11-12T17:02:53.377Z,67.23
2022-11-12T17:05:23.706Z,66.78
2022-11-12T17:07:56.106Z,66.82
2022-11-12T17:10:25.387Z,67.13
2022-11-12T17:12:53.280Z,66.70
2022-11-12T17:15:21.229Z,66.99
2022-11-12T17:17:48.916Z,67.09
2022-11-12T17:20:17.325Z,67.27
2022-11-12T17:22:45.022Z,66.91
2022-11-12T17:25:12.738Z,66.68
2022-11-12T17:27:41.733Z,66.74
2022-11-12T17:30:11.285Z,66.70
2022-11-12T17:32:39.065Z,66.73
2022-11-12T17:35:07.854Z,66.71
2022-11-12T17:37:35.611Z,66.70
2022-11-12T17:40:03.355Z,66.84
2022-11-12T17:42:31.078Z,67.07
2022-11-12T17:45:00.065Z,66.84
2022-11-12T17:47:28.682Z,66.67
2022-11-12T17:49:56.340Z,66.79
2022-11-12T17:52:24.132Z,66.61
2022-11-12T17:54:51.825Z,66.69
2022-11-12T17:57:19.519Z,66.45
2022-11-12T17:59:47.137Z,66.55
2022-11-12T18:02:16.151Z,66.41
2022-11-12T18:04:43.835Z,66.82
2022-11-12T18:07:11.569Z,66.37
2022-11-12T18:09:39.253Z,66.43
2022-11-12T18:12:07.176Z,66.72
2022-11-12T18:14:35.025Z,66.59
2022-11-12T18:17:02.993Z,66.31
2022-11-12T18:19:32.075Z,66.33
2022-11-12T18:22:02.070Z,66.75
2022-11-12T18:24:29.773Z,66.71
2022-11-12T18:26:57.438Z,66.60
2022-11-12T18:29:25.123Z,66.55
2022-11-12T18:31:52.782Z,66.61
2022-11-12T18:34:20.481Z,66.05
2022-11-12T18:36:49.513Z,66.49
2022-11-12T18:39:17.216Z,65.95
2022-11-12T18:41:44.917Z,65.86
2022-11-12T18:44:12.625Z,65.76
2022-11-12T18:46:40.305Z,65.72
2022-11-12T18:49:08.135Z,65.80
2022-11-12T18:51:36.205Z,65.93
2022-11-12T18:54:05.653Z,65.89
2022-11-12T18:56:33.387Z,66.10
2022-11-12T18:59:01.083Z,65.57
2022-11-12T19:01:28.799Z,65.61
2022-11-12T19:03:57.521Z,65.74
2022-11-12T19:06:26.385Z,65.50
2022-11-12T19:08:59.628Z,65.73
2022-11-12T19:11:28.674Z,65.61
2022-11-12T19:13:57.171Z,65.19
2022-11-12T19:16:25.345Z,65.29
2022-11-12T19:18:53.545Z,65.35
2022-11-12T19:21:23.513Z,65.54
2022-11-12T19:23:54.776Z,65.20
2022-11-12T19:26:24.125Z,65.30
2022-11-12T19:28:53.267Z,65.28
2022-11-12T19:31:23.206Z,65.47
2022-11-12T19:33:51.735Z,65.67
2022-11-12T19:36:22.166Z,65.34
2022-11-12T19:38:54.600Z,65.20
2022-11-12T19:41:22.337Z,65.25
2022-11-12T19:43:50.109Z,65.10
2022-11-12T19:46:19.367Z,65.46
2022-11-12T19:48:47.217Z,65.44
2022-11-12T19:51:15.109Z,65.17
2022-11-12T19:53:45.365Z,65.33
2022-11-12T19:56:16.894Z,65.37
2022-11-12T19:58:46.225Z,65.09
2022-11-12T20:01:16.033Z,65.49
2022-11-12T20:03:45.151Z,65.05
2022-11-12T20:06:14.474Z,65.08
2022-11-12T20:08:42.162Z,65.01
2022-11-12T20:11:10.028Z,65.08
2022-11-12T20:13:37.768Z,65.36
2022-11-12T20:16:09.382Z,65.39
2022-11-12T20:18:37.069Z,65.02
2022-11-12T20:21:07.753Z,65.07
2022-11-12T20:23:36.499Z,65.08
2022-11-12T20:26:05.733Z,65.22
2022-11-12T20:28:34.057Z,64.75
2022-11-12T20:31:03.641Z,64.88
2022-11-12T20:33:31.465Z,65.09
2022-11-12T20:36:04.481Z,64.88
2022-11-12T20:38:36.488Z,64.87
2022-11-12T20:41:05.672Z,65.02
2022-11-12T20:43:33.878Z,65.01
2022-11-12T20:46:01.961Z,64.94
2022-11-12T20:48:30.275Z,64.79
2022-11-12T20:51:22.532Z,64.34
2022-11-12T20:53:58.886Z,64.49
2022-11-12T20:56:29.296Z,64.67
2022-11-12T20:58:57.665Z,64.61
2022-11-12T21:01:27.269Z,64.62
2022-11-12T21:03:55.333Z,64.47
2022-11-12T21:06:24.630Z,64.40
2022-11-12T21:08:54.160Z,64.63
2022-11-12T21:11:23.491Z,64.42
2022-11-12T21:13:51.407Z,64.62
2022-11-12T21:16:19.119Z,64.67
2022-11-12T21:18:46.884Z,64.56
2022-11-12T21:21:16.616Z,64.47
2022-11-12T21:23:45.682Z,64.65
2022-11-12T21:26:16.027Z,64.67
2022-11-12T21:28:44.751Z,64.23
2022-11-12T21:31:14.171Z,64.24
2022-11-12T21:33:41.882Z,64.46
2022-11-12T21:36:15.803Z,64.17
2022-11-12T21:38:44.524Z,64.39
2022-11-12T21:41:15.666Z,64.18
2022-11-12T21:43:44.775Z,64.19
2022-11-12T21:46:15.506Z,64.20
2022-11-12T21:48:43.510Z,64.29
2022-11-12T21:51:13.597Z,64.42
2022-11-12T21:53:43.120Z,64.45
2022-11-12T21:56:12.565Z,64.47
2022-11-12T21:58:41.686Z,64.30
2022-11-12T22:01:10.777Z,64.33
2022-11-12T22:03:39.345Z,64.44
2022-11-12T22:06:08.101Z,64.10
2022-11-12T22:08:36.079Z,64.23
2022-11-12T22:11:05.241Z,64.26
2022-11-12T22:13:33.615Z,64.13
2022-11-12T22:16:07.362Z,64.11
2022-11-12T22:18:35.353Z,63.89
2022-11-12T22:21:05.358Z,64.22
2022-11-12T22:23:35.857Z,64.16
2022-11-12T22:26:04.432Z,64.26
2022-11-12T22:28:32.219Z,64.36
2022-11-12T22:31:06.235Z,64.02
2022-11-12T22:33:34.551Z,64.04
2022-11-12T22:36:03.086Z,64.14
2022-11-12T22:38:35.330Z,64.22
2022-11-12T22:41:04.570Z,64.20
2022-11-12T22:43:32.686Z,64.21
2022-11-12T22:46:10.585Z,64.02
2022-11-12T22:48:38.494Z,64.07
2022-11-12T22:51:07.959Z,63.91
2022-11-12T22:53:35.894Z,63.92
2022-11-12T22:56:04.050Z,63.96
2022-11-12T22:58:31.866Z,63.89
2022-11-12T23:00:59.621Z,64.01
2022-11-12T23:03:31.270Z,63.92
2022-11-12T23:05:59.408Z,63.78
2022-11-12T23:08:27.740Z,64.09
2022-11-12T23:10:55.797Z,64.04
2022-11-12T23:13:26.703Z,63.90
2022-11-12T23:15:54.554Z,63.93
2022-11-12T23:18:22.189Z,63.91
2022-11-12T23:20:51.406Z,63.89
2022-11-12T23:23:19.211Z,63.97
2022-11-12T23:25:46.855Z,63.97
2022-11-12T23:28:14.516Z,64.21
2022-11-12T23:30:48.826Z,63.87
2022-11-12T23:33:16.495Z,64.20
2022-11-12T23:35:44.166Z,64.23
2022-11-12T23:38:13.170Z,64.07
2022-11-12T23:40:40.840Z,64.07
2022-11-12T23:43:08.562Z,64.07
2022-11-12T23:45:37.138Z,63.96
2022-11-12T23:48:05.296Z,64.02
2022-11-12T23:50:32.978Z,64.19
2022-11-12T23:53:00.673Z,64.22
2022-11-12T23:55:29.706Z,64.01
2022-11-12T23:57:57.341Z,64.21
